sensor_id;sensor_type;location;lat;lon;timestamp;temperature;humidity
70676;DHT22;59069;52.242;20.900;2023-05-29T00:01:28;14.56;53.22
70676;DHT22;59069;52.242;20.900;2023-05-29T00:03:54;14.52;53.42
70676;DHT22;59069;52.242;20.900;2023-05-29T00:06:19;14.47;53.62
70676;DHT22;59069;52.242;20.900;2023-05-29T00:08:45;14.42;53.74
70676;DHT22;59069;52.242;20.900;2023-05-29T00:11:11;14.40;53.89
70676;DHT22;59069;52.242;20.900;2023-05-29T00:13:36;14.36;54.01
70676;DHT22;59069;52.242;20.900;2023-05-29T00:16:02;14.32;54.28
70676;DHT22;59069;52.242;20.900;2023-05-29T00:18:29;14.30;54.45
70676;DHT22;59069;52.242;20.900;2023-05-29T00:20:54;14.26;54.60
70676;DHT22;59069;52.242;20.900;2023-05-29T00:23:21;14.22;54.61
70676;DHT22;59069;52.242;20.900;2023-05-29T00:25:46;14.18;54.87
70676;DHT22;59069;52.242;20.900;2023-05-29T00:28:12;14.16;55.01
70676;DHT22;59069;52.242;20.900;2023-05-29T00:30:41;14.14;54.86
70676;DHT22;59069;52.242;20.900;2023-05-29T00:33:06;14.11;54.76
70676;DHT22;59069;52.242;20.900;2023-05-29T00:35:32;14.12;54.79
70676;DHT22;59069;52.242;20.900;2023-05-29T00:37:58;14.12;54.76
70676;DHT22;59069;52.242;20.900;2023-05-29T00:40:23;14.12;54.76
70676;DHT22;59069;52.242;20.900;2023-05-29T00:42:49;14.12;54.73
70676;DHT22;59069;52.242;20.900;2023-05-29T00:45:14;14.11;54.78
70676;DHT22;59069;52.242;20.900;2023-05-29T00:47:41;14.08;54.92
70676;DHT22;59069;52.242;20.900;2023-05-29T00:50:08;14.05;55.20
70676;DHT22;59069;52.242;20.900;2023-05-29T00:52:36;14.02;55.20
70676;DHT22;59069;52.242;20.900;2023-05-29T00:55:02;14.01;55.16
70676;DHT22;59069;52.242;20.900;2023-05-29T00:57:28;14.02;55.12
70676;DHT22;59069;52.242;20.900;2023-05-29T00:59:55;13.97;55.04
70676;DHT22;59069;52.242;20.900;2023-05-29T01:02:20;13.94;55.10
70676;DHT22;59069;52.242;20.900;2023-05-29T01:04:47;13.92;55.27
70676;DHT22;59069;52.242;20.900;2023-05-29T01:07:13;13.86;55.40
70676;DHT22;59069;52.242;20.900;2023-05-29T01:09:39;13.85;55.74
70676;DHT22;59069;52.242;20.900;2023-05-29T01:15:14;13.77;56.08
70676;DHT22;59069;52.242;20.900;2023-05-29T01:17:50;13.74;56.21
70676;DHT22;59069;52.242;20.900;2023-05-29T01:20:25;13.65;56.34
70676;DHT22;59069;52.242;20.900;2023-05-29T01:23:04;13.61;56.64
70676;DHT22;59069;52.242;20.900;2023-05-29T01:28:10;13.55;56.94
70676;DHT22;59069;52.242;20.900;2023-05-29T01:30:36;13.51;56.98
70676;DHT22;59069;52.242;20.900;2023-05-29T01:33:03;13.47;57.17
70676;DHT22;59069;52.242;20.900;2023-05-29T01:35:29;13.46;57.34
70676;DHT22;59069;52.242;20.900;2023-05-29T01:37:54;13.42;57.62
70676;DHT22;59069;52.242;20.900;2023-05-29T01:40:20;13.39;57.56
70676;DHT22;59069;52.242;20.900;2023-05-29T01:42:46;13.37;57.85
70676;DHT22;59069;52.242;20.900;2023-05-29T01:45:11;13.34;58.15
70676;DHT22;59069;52.242;20.900;2023-05-29T01:47:37;13.30;58.42
70676;DHT22;59069;52.242;20.900;2023-05-29T01:50:04;13.28;58.66
70676;DHT22;59069;52.242;20.900;2023-05-29T01:52:30;13.24;58.82
70676;DHT22;59069;52.242;20.900;2023-05-29T01:54:55;13.20;59.00
70676;DHT22;59069;52.242;20.900;2023-05-29T01:57:21;13.16;58.98
70676;DHT22;59069;52.242;20.900;2023-05-29T01:59:47;13.14;59.01
70676;DHT22;59069;52.242;20.900;2023-05-29T02:02:14;13.12;59.20
70676;DHT22;59069;52.242;20.900;2023-05-29T02:04:39;13.09;59.38
70676;DHT22;59069;52.242;20.900;2023-05-29T02:07:05;13.04;59.54
70676;DHT22;59069;52.242;20.900;2023-05-29T02:09:32;13.03;59.74
70676;DHT22;59069;52.242;20.900;2023-05-29T02:11:58;13.00;59.86
70676;DHT22;59069;52.242;20.900;2023-05-29T02:14:23;12.99;59.86
70676;DHT22;59069;52.242;20.900;2023-05-29T02:16:51;12.96;59.99
70676;DHT22;59069;52.242;20.900;2023-05-29T02:19:18;12.91;60.21
70676;DHT22;59069;52.242;20.900;2023-05-29T02:21:44;12.89;60.41
70676;DHT22;59069;52.242;20.900;2023-05-29T02:24:09;12.83;60.61
70676;DHT22;59069;52.242;20.900;2023-05-29T02:26:35;12.82;60.80
70676;DHT22;59069;52.242;20.900;2023-05-29T02:29:03;12.75;61.08
70676;DHT22;59069;52.242;20.900;2023-05-29T02:31:31;12.75;61.34
70676;DHT22;59069;52.242;20.900;2023-05-29T02:33:56;12.73;61.58
70676;DHT22;59069;52.242;20.900;2023-05-29T02:36:21;12.73;61.76
70676;DHT22;59069;52.242;20.900;2023-05-29T02:38:47;12.73;62.01
70676;DHT22;59069;52.242;20.900;2023-05-29T02:41:12;12.68;62.21
70676;DHT22;59069;52.242;20.900;2023-05-29T02:43:38;12.68;62.42
70676;DHT22;59069;52.242;20.900;2023-05-29T02:46:03;12.66;62.62
70676;DHT22;59069;52.242;20.900;2023-05-29T02:48:29;12.69;62.78
70676;DHT22;59069;52.242;20.900;2023-05-29T02:50:54;12.65;63.00
70676;DHT22;59069;52.242;20.900;2023-05-29T02:53:20;12.66;63.12
70676;DHT22;59069;52.242;20.900;2023-05-29T02:55:45;12.65;63.18
70676;DHT22;59069;52.242;20.900;2023-05-29T02:58:12;12.66;63.27
70676;DHT22;59069;52.242;20.900;2023-05-29T03:00:38;12.63;63.32
70676;DHT22;59069;52.242;20.900;2023-05-29T03:03:03;12.66;63.47
70676;DHT22;59069;52.242;20.900;2023-05-29T03:05:29;12.68;63.47
70676;DHT22;59069;52.242;20.900;2023-05-29T03:07:55;12.72;63.49
70676;DHT22;59069;52.242;20.900;2023-05-29T03:10:21;12.75;63.49
70676;DHT22;59069;52.242;20.900;2023-05-29T03:12:47;12.78;63.57
70676;DHT22;59069;52.242;20.900;2023-05-29T03:15:13;12.78;63.68
70676;DHT22;59069;52.242;20.900;2023-05-29T03:17:39;12.79;63.70
70676;DHT22;59069;52.242;20.900;2023-05-29T03:20:05;12.83;63.69
70676;DHT22;59069;52.242;20.900;2023-05-29T03:22:32;12.88;63.66
70676;DHT22;59069;52.242;20.900;2023-05-29T03:24:57;12.91;63.70
70676;DHT22;59069;52.242;20.900;2023-05-29T03:27:23;12.96;63.80
70676;DHT22;59069;52.242;20.900;2023-05-29T03:29:48;12.97;63.81
70676;DHT22;59069;52.242;20.900;2023-05-29T03:32:14;13.00;63.91
70676;DHT22;59069;52.242;20.900;2023-05-29T03:34:40;13.06;63.95
70676;DHT22;59069;52.242;20.900;2023-05-29T03:37:05;13.10;64.02
70676;DHT22;59069;52.242;20.900;2023-05-29T03:39:31;13.14;63.98
70676;DHT22;59069;52.242;20.900;2023-05-29T03:41:56;13.22;64.00
70676;DHT22;59069;52.242;20.900;2023-05-29T03:44:21;13.28;63.90
70676;DHT22;59069;52.242;20.900;2023-05-29T03:46:47;13.32;63.99
70676;DHT22;59069;52.242;20.900;2023-05-29T03:49:12;13.37;63.95
70676;DHT22;59069;52.242;20.900;2023-05-29T03:51:38;13.44;63.93
70676;DHT22;59069;52.242;20.900;2023-05-29T03:54:03;13.50;63.76
70676;DHT22;59069;52.242;20.900;2023-05-29T03:56:29;13.60;63.60
70676;DHT22;59069;52.242;20.900;2023-05-29T03:58:55;13.70;63.52
70676;DHT22;59069;52.242;20.900;2023-05-29T04:01:21;13.82;63.52
70676;DHT22;59069;52.242;20.900;2023-05-29T04:03:46;13.88;63.28
70676;DHT22;59069;52.242;20.900;2023-05-29T04:06:12;14.01;63.17
70676;DHT22;59069;52.242;20.900;2023-05-29T04:08:38;14.06;63.03
70676;DHT22;59069;52.242;20.900;2023-05-29T04:11:03;14.14;62.91
70676;DHT22;59069;52.242;20.900;2023-05-29T04:13:30;14.24;62.80
70676;DHT22;59069;52.242;20.900;2023-05-29T04:15:55;14.32;62.78
70676;DHT22;59069;52.242;20.900;2023-05-29T04:18:21;14.42;62.71
70676;DHT22;59069;52.242;20.900;2023-05-29T04:20:46;14.52;62.49
70676;DHT22;59069;52.242;20.900;2023-05-29T04:23:13;14.60;62.05
70676;DHT22;59069;52.242;20.900;2023-05-29T04:25:38;14.69;61.93
70676;DHT22;59069;52.242;20.900;2023-05-29T04:28:04;14.79;61.97
70676;DHT22;59069;52.242;20.900;2023-05-29T04:30:30;14.88;61.65
70676;DHT22;59069;52.242;20.900;2023-05-29T04:32:57;14.98;61.16
70676;DHT22;59069;52.242;20.900;2023-05-29T04:35:23;15.08;60.46
70676;DHT22;59069;52.242;20.900;2023-05-29T04:37:48;15.20;59.78
70676;DHT22;59069;52.242;20.900;2023-05-29T04:40:14;15.30;59.08
70676;DHT22;59069;52.242;20.900;2023-05-29T04:42:42;15.38;58.22
70676;DHT22;59069;52.242;20.900;2023-05-29T04:45:10;15.48;57.06
70676;DHT22;59069;52.242;20.900;2023-05-29T04:47:39;15.55;55.95
70676;DHT22;59069;52.242;20.900;2023-05-29T04:50:15;15.62;54.95
70676;DHT22;59069;52.242;20.900;2023-05-29T04:52:41;15.73;53.95
70676;DHT22;59069;52.242;20.900;2023-05-29T04:55:07;15.79;53.27
70676;DHT22;59069;52.242;20.900;2023-05-29T04:57:32;15.89;52.58
70676;DHT22;59069;52.242;20.900;2023-05-29T04:59:58;15.97;52.17
70676;DHT22;59069;52.242;20.900;2023-05-29T05:02:23;16.05;51.44
70676;DHT22;59069;52.242;20.900;2023-05-29T05:04:49;16.10;50.83
70676;DHT22;59069;52.242;20.900;2023-05-29T05:07:15;16.17;50.08
70676;DHT22;59069;52.242;20.900;2023-05-29T05:09:41;16.26;49.09
70676;DHT22;59069;52.242;20.900;2023-05-29T05:12:07;16.27;48.69
70676;DHT22;59069;52.242;20.900;2023-05-29T05:14:33;16.36;48.18
70676;DHT22;59069;52.242;20.900;2023-05-29T05:16:58;16.43;47.76
70676;DHT22;59069;52.242;20.900;2023-05-29T05:19:24;16.56;47.49
70676;DHT22;59069;52.242;20.900;2023-05-29T05:21:49;16.61;47.41
70676;DHT22;59069;52.242;20.900;2023-05-29T05:24:14;16.70;46.93
70676;DHT22;59069;52.242;20.900;2023-05-29T05:26:40;16.79;46.46
70676;DHT22;59069;52.242;20.900;2023-05-29T05:29:05;16.87;46.15
70676;DHT22;59069;52.242;20.900;2023-05-29T05:31:31;16.92;46.03
70676;DHT22;59069;52.242;20.900;2023-05-29T05:33:56;17.01;46.10
70676;DHT22;59069;52.242;20.900;2023-05-29T05:36:22;17.08;46.11
70676;DHT22;59069;52.242;20.900;2023-05-29T05:38:48;17.14;45.80
70676;DHT22;59069;52.242;20.900;2023-05-29T05:41:13;17.16;45.59
70676;DHT22;59069;52.242;20.900;2023-05-29T05:43:39;17.22;45.67
70676;DHT22;59069;52.242;20.900;2023-05-29T05:46:04;17.28;45.74
70676;DHT22;59069;52.242;20.900;2023-05-29T05:48:30;17.30;45.78
70676;DHT22;59069;52.242;20.900;2023-05-29T05:50:55;17.36;45.73
70676;DHT22;59069;52.242;20.900;2023-05-29T05:53:21;17.42;45.42
70676;DHT22;59069;52.242;20.900;2023-05-29T05:55:46;17.49;44.99
70676;DHT22;59069;52.242;20.900;2023-05-29T05:58:12;17.52;45.10
70676;DHT22;59069;52.242;20.900;2023-05-29T06:00:39;17.57;45.10
70676;DHT22;59069;52.242;20.900;2023-05-29T06:03:04;17.66;44.67
70676;DHT22;59069;52.242;20.900;2023-05-29T06:05:30;17.73;44.73
70676;DHT22;59069;52.242;20.900;2023-05-29T06:07:55;17.81;44.63
70676;DHT22;59069;52.242;20.900;2023-05-29T06:10:21;17.89;44.64
70676;DHT22;59069;52.242;20.900;2023-05-29T06:12:46;17.93;44.06
70676;DHT22;59069;52.242;20.900;2023-05-29T06:15:11;18.00;43.75
70676;DHT22;59069;52.242;20.900;2023-05-29T06:17:37;18.07;43.82
70676;DHT22;59069;52.242;20.900;2023-05-29T06:20:03;18.12;43.80
70676;DHT22;59069;52.242;20.900;2023-05-29T06:22:35;18.15;43.13
70676;DHT22;59069;52.242;20.900;2023-05-29T06:25:00;18.18;42.75
70676;DHT22;59069;52.242;20.900;2023-05-29T06:27:26;18.27;42.65
70676;DHT22;59069;52.242;20.900;2023-05-29T06:29:51;18.37;42.90
70676;DHT22;59069;52.242;20.900;2023-05-29T06:32:17;18.41;43.13
70676;DHT22;59069;52.242;20.900;2023-05-29T06:34:42;18.48;43.04
70676;DHT22;59069;52.242;20.900;2023-05-29T06:37:08;18.58;43.17
70676;DHT22;59069;52.242;20.900;2023-05-29T06:39:34;18.63;42.75
70676;DHT22;59069;52.242;20.900;2023-05-29T06:41:59;18.69;42.62
70676;DHT22;59069;52.242;20.900;2023-05-29T06:44:26;18.76;42.41
70676;DHT22;59069;52.242;20.900;2023-05-29T06:46:51;18.79;41.99
70676;DHT22;59069;52.242;20.900;2023-05-29T06:49:17;18.86;41.60
70676;DHT22;59069;52.242;20.900;2023-05-29T06:51:43;18.91;41.05
70676;DHT22;59069;52.242;20.900;2023-05-29T06:54:09;19.02;40.84
70676;DHT22;59069;52.242;20.900;2023-05-29T06:56:34;19.12;40.46
70676;DHT22;59069;52.242;20.900;2023-05-29T06:59:00;19.14;40.15
70676;DHT22;59069;52.242;20.900;2023-05-29T07:01:25;19.22;39.83
70676;DHT22;59069;52.242;20.900;2023-05-29T07:03:54;19.33;40.13
70676;DHT22;59069;52.242;20.900;2023-05-29T07:06:19;19.49;40.36
70676;DHT22;59069;52.242;20.900;2023-05-29T07:08:45;19.61;40.23
70676;DHT22;59069;52.242;20.900;2023-05-29T07:11:11;19.71;39.57
70676;DHT22;59069;52.242;20.900;2023-05-29T07:13:36;19.88;39.35
70676;DHT22;59069;52.242;20.900;2023-05-29T07:16:02;19.96;38.90
70676;DHT22;59069;52.242;20.900;2023-05-29T07:18:27;20.06;38.52
70676;DHT22;59069;52.242;20.900;2023-05-29T07:20:55;20.19;38.38
70676;DHT22;59069;52.242;20.900;2023-05-29T07:23:21;20.25;37.87
70676;DHT22;59069;52.242;20.900;2023-05-29T07:25:46;20.30;37.87
70676;DHT22;59069;52.242;20.900;2023-05-29T07:28:12;20.37;38.15
70676;DHT22;59069;52.242;20.900;2023-05-29T07:30:37;20.47;38.14
70676;DHT22;59069;52.242;20.900;2023-05-29T07:33:03;20.59;37.96
70676;DHT22;59069;52.242;20.900;2023-05-29T07:35:28;20.63;37.75
70676;DHT22;59069;52.242;20.900;2023-05-29T07:37:54;20.72;37.46
70676;DHT22;59069;52.242;20.900;2023-05-29T07:40:19;20.72;37.31
70676;DHT22;59069;52.242;20.900;2023-05-29T07:42:45;20.72;37.44
70676;DHT22;59069;52.242;20.900;2023-05-29T07:45:10;20.76;37.41
70676;DHT22;59069;52.242;20.900;2023-05-29T07:47:36;20.83;37.24
70676;DHT22;59069;52.242;20.900;2023-05-29T07:50:02;20.90;37.13
70676;DHT22;59069;52.242;20.900;2023-05-29T07:52:27;20.98;37.26
70676;DHT22;59069;52.242;20.900;2023-05-29T07:54:53;21.03;36.70
70676;DHT22;59069;52.242;20.900;2023-05-29T07:57:18;21.08;36.79
70676;DHT22;59069;52.242;20.900;2023-05-29T07:59:44;21.11;36.74
70676;DHT22;59069;52.242;20.900;2023-05-29T08:02:09;21.21;36.65
70676;DHT22;59069;52.242;20.900;2023-05-29T08:04:35;21.41;36.85
70676;DHT22;59069;52.242;20.900;2023-05-29T08:07:02;21.52;36.58
70676;DHT22;59069;52.242;20.900;2023-05-29T08:09:29;21.58;36.00
70676;DHT22;59069;52.242;20.900;2023-05-29T08:11:54;21.62;35.34
70676;DHT22;59069;52.242;20.900;2023-05-29T08:14:20;21.58;35.45
70676;DHT22;59069;52.242;20.900;2023-05-29T08:16:46;21.58;35.51
70676;DHT22;59069;52.242;20.900;2023-05-29T08:19:11;21.56;35.13
70676;DHT22;59069;52.242;20.900;2023-05-29T08:21:37;21.56;35.16
70676;DHT22;59069;52.242;20.900;2023-05-29T08:24:03;21.65;35.02
70676;DHT22;59069;52.242;20.900;2023-05-29T08:26:30;21.82;35.30
70676;DHT22;59069;52.242;20.900;2023-05-29T08:28:56;21.99;34.91
70676;DHT22;59069;52.242;20.900;2023-05-29T08:31:21;22.12;34.65
70676;DHT22;59069;52.242;20.900;2023-05-29T08:33:49;22.18;34.41
70676;DHT22;59069;52.242;20.900;2023-05-29T08:36:15;22.21;34.58
70676;DHT22;59069;52.242;20.900;2023-05-29T08:38:40;22.27;34.62
70676;DHT22;59069;52.242;20.900;2023-05-29T08:41:07;22.29;34.32
70676;DHT22;59069;52.242;20.900;2023-05-29T08:43:32;22.34;34.35
70676;DHT22;59069;52.242;20.900;2023-05-29T08:46:01;22.46;34.83
70676;DHT22;59069;52.242;20.900;2023-05-29T08:48:29;22.51;34.27
70676;DHT22;59069;52.242;20.900;2023-05-29T08:50:56;22.54;34.01
70676;DHT22;59069;52.242;20.900;2023-05-29T08:53:23;22.51;33.77
70676;DHT22;59069;52.242;20.900;2023-05-29T08:55:52;22.47;33.50
70676;DHT22;59069;52.242;20.900;2023-05-29T08:58:21;22.44;33.57
70676;DHT22;59069;52.242;20.900;2023-05-29T09:00:48;22.40;33.05
70676;DHT22;59069;52.242;20.900;2023-05-29T09:03:14;22.44;32.89
70676;DHT22;59069;52.242;20.900;2023-05-29T09:05:40;22.50;33.23
70676;DHT22;59069;52.242;20.900;2023-05-29T09:08:08;22.51;33.12
70676;DHT22;59069;52.242;20.900;2023-05-29T09:10:34;22.53;32.89
70676;DHT22;59069;52.242;20.900;2023-05-29T09:12:59;22.50;32.55
70676;DHT22;59069;52.242;20.900;2023-05-29T09:15:25;22.53;32.83
70676;DHT22;59069;52.242;20.900;2023-05-29T09:20:18;22.60;32.28
70676;DHT22;59069;52.242;20.900;2023-05-29T09:25:27;22.69;32.38
70676;DHT22;59069;52.242;20.900;2023-05-29T09:30:46;22.91;32.21
70676;DHT22;59069;52.242;20.900;2023-05-29T09:33:13;22.97;31.97
70676;DHT22;59069;52.242;20.900;2023-05-29T09:35:43;22.99;31.77
70676;DHT22;59069;52.242;20.900;2023-05-29T09:38:11;22.97;31.79
70676;DHT22;59069;52.242;20.900;2023-05-29T09:40:38;22.90;31.78
70676;DHT22;59069;52.242;20.900;2023-05-29T09:43:14;22.87;32.00
70676;DHT22;59069;52.242;20.900;2023-05-29T09:45:43;22.94;32.42
70676;DHT22;59069;52.242;20.900;2023-05-29T09:48:15;22.98;32.05
70676;DHT22;59069;52.242;20.900;2023-05-29T09:50:42;23.01;31.71
70676;DHT22;59069;52.242;20.900;2023-05-29T09:55:48;23.18;32.53
70676;DHT22;59069;52.242;20.900;2023-05-29T09:58:15;23.29;32.33
70676;DHT22;59069;52.242;20.900;2023-05-29T10:00:42;23.36;31.97
70676;DHT22;59069;52.242;20.900;2023-05-29T10:03:09;23.36;31.62
70676;DHT22;59069;52.242;20.900;2023-05-29T10:05:37;23.29;31.61
70676;DHT22;59069;52.242;20.900;2023-05-29T10:08:04;23.28;31.76
70676;DHT22;59069;52.242;20.900;2023-05-29T10:10:32;23.38;32.25
70676;DHT22;59069;52.242;20.900;2023-05-29T10:12:58;23.50;32.17
70676;DHT22;59069;52.242;20.900;2023-05-29T10:15:25;23.56;31.82
70676;DHT22;59069;52.242;20.900;2023-05-29T10:18:16;23.65;31.45
70676;DHT22;59069;52.242;20.900;2023-05-29T10:20:44;23.66;30.78
70676;DHT22;59069;52.242;20.900;2023-05-29T10:23:11;23.63;30.77
70676;DHT22;59069;52.242;20.900;2023-05-29T10:25:38;23.71;30.77
70676;DHT22;59069;52.242;20.900;2023-05-29T10:28:05;23.71;30.77
70676;DHT22;59069;52.242;20.900;2023-05-29T10:30:45;23.73;31.01
70676;DHT22;59069;52.242;20.900;2023-05-29T10:33:36;23.79;31.47
70676;DHT22;59069;52.242;20.900;2023-05-29T10:36:14;23.88;30.75
70676;DHT22;59069;52.242;20.900;2023-05-29T10:38:45;24.00;30.40
70676;DHT22;59069;52.242;20.900;2023-05-29T10:43:58;24.17;30.74
70676;DHT22;59069;52.242;20.900;2023-05-29T10:49:22;24.62;31.26
70676;DHT22;59069;52.242;20.900;2023-05-29T10:51:48;24.90;30.47
70676;DHT22;59069;52.242;20.900;2023-05-29T10:54:14;25.18;29.80
70676;DHT22;59069;52.242;20.900;2023-05-29T10:56:40;25.24;28.84
70676;DHT22;59069;52.242;20.900;2023-05-29T10:59:07;25.18;28.55
70676;DHT22;59069;52.242;20.900;2023-05-29T11:01:33;24.99;28.54
70676;DHT22;59069;52.242;20.900;2023-05-29T11:06:47;25.00;29.65
70676;DHT22;59069;52.242;20.900;2023-05-29T11:09:36;25.09;29.39
70676;DHT22;59069;52.242;20.900;2023-05-29T11:12:24;25.22;29.40
70676;DHT22;59069;52.242;20.900;2023-05-29T11:15:07;25.34;29.44
70676;DHT22;59069;52.242;20.900;2023-05-29T11:20:06;25.49;29.02
70676;DHT22;59069;52.242;20.900;2023-05-29T11:25:24;25.61;29.30
70676;DHT22;59069;52.242;20.900;2023-05-29T11:27:50;25.64;29.09
70676;DHT22;59069;52.242;20.900;2023-05-29T11:30:18;25.88;30.84
70676;DHT22;59069;52.242;20.900;2023-05-29T11:32:44;26.29;30.74
70676;DHT22;59069;52.242;20.900;2023-05-29T11:35:11;26.78;29.23
70676;DHT22;59069;52.242;20.900;2023-05-29T11:37:38;27.15;28.64
70676;DHT22;59069;52.242;20.900;2023-05-29T11:40:08;27.50;27.42
70676;DHT22;59069;52.242;20.900;2023-05-29T11:42:44;27.41;24.34
70676;DHT22;59069;52.242;20.900;2023-05-29T11:45:11;27.45;28.47
70676;DHT22;59069;52.242;20.900;2023-05-29T11:50:24;27.73;25.05
70676;DHT22;59069;52.242;20.900;2023-05-29T11:52:50;27.77;25.87
70676;DHT22;59069;52.242;20.900;2023-05-29T11:55:18;27.96;27.10
70676;DHT22;59069;52.242;20.900;2023-05-29T11:57:44;28.10;25.61
70676;DHT22;59069;52.242;20.900;2023-05-29T12:00:16;28.17;25.26
70676;DHT22;59069;52.242;20.900;2023-05-29T12:02:42;28.10;25.13
70676;DHT22;59069;52.242;20.900;2023-05-29T12:05:09;28.14;25.46
70676;DHT22;59069;52.242;20.900;2023-05-29T12:07:38;28.16;25.19
70676;DHT22;59069;52.242;20.900;2023-05-29T12:10:15;28.17;25.21
70676;DHT22;59069;52.242;20.900;2023-05-29T12:12:41;28.12;24.68
70676;DHT22;59069;52.242;20.900;2023-05-29T12:15:07;28.12;25.14
70676;DHT22;59069;52.242;20.900;2023-05-29T12:17:34;28.20;25.90
70676;DHT22;59069;52.242;20.900;2023-05-29T12:20:00;28.29;25.90
70676;DHT22;59069;52.242;20.900;2023-05-29T12:22:37;28.46;25.64
70676;DHT22;59069;52.242;20.900;2023-05-29T12:27:34;28.44;25.72
70676;DHT22;59069;52.242;20.900;2023-05-29T12:30:07;28.47;25.60
70676;DHT22;59069;52.242;20.900;2023-05-29T12:32:42;28.19;24.69
70676;DHT22;59069;52.242;20.900;2023-05-29T12:40:26;27.75;26.17
70676;DHT22;59069;52.242;20.900;2023-05-29T12:45:24;27.95;25.22
70676;DHT22;59069;52.242;20.900;2023-05-29T12:47:52;27.86;25.15
70676;DHT22;59069;52.242;20.900;2023-05-29T12:52:59;27.44;25.70
70676;DHT22;59069;52.242;20.900;2023-05-29T12:55:30;27.47;26.46
70676;DHT22;59069;52.242;20.900;2023-05-29T12:57:56;27.59;26.01
70676;DHT22;59069;52.242;20.900;2023-05-29T13:00:22;27.72;25.69
70676;DHT22;59069;52.242;20.900;2023-05-29T13:02:48;27.81;26.02
70676;DHT22;59069;52.242;20.900;2023-05-29T13:05:15;27.81;25.92
70676;DHT22;59069;52.242;20.900;2023-05-29T13:07:42;27.86;26.17
70676;DHT22;59069;52.242;20.900;2023-05-29T13:10:08;27.89;26.63
70676;DHT22;59069;52.242;20.900;2023-05-29T13:12:36;28.02;26.54
70676;DHT22;59069;52.242;20.900;2023-05-29T13:15:02;28.01;25.69
70676;DHT22;59069;52.242;20.900;2023-05-29T13:17:28;27.95;26.13
70676;DHT22;59069;52.242;20.900;2023-05-29T13:19:53;27.91;25.94
70676;DHT22;59069;52.242;20.900;2023-05-29T13:22:18;27.78;25.63
70676;DHT22;59069;52.242;20.900;2023-05-29T13:24:45;27.63;25.26
70676;DHT22;59069;52.242;20.900;2023-05-29T13:27:10;27.35;25.60
70676;DHT22;59069;52.242;20.900;2023-05-29T13:29:39;26.99;26.28
70676;DHT22;59069;52.242;20.900;2023-05-29T13:32:06;26.69;26.57
70676;DHT22;59069;52.242;20.900;2023-05-29T13:34:31;26.50;26.78
70676;DHT22;59069;52.242;20.900;2023-05-29T13:36:57;26.53;28.24
70676;DHT22;59069;52.242;20.900;2023-05-29T13:39:23;26.70;27.90
70676;DHT22;59069;52.242;20.900;2023-05-29T13:41:48;26.91;27.58
70676;DHT22;59069;52.242;20.900;2023-05-29T13:44:14;27.11;26.49
70676;DHT22;59069;52.242;20.900;2023-05-29T13:46:39;27.34;26.45
70676;DHT22;59069;52.242;20.900;2023-05-29T13:49:05;27.35;25.35
70676;DHT22;59069;52.242;20.900;2023-05-29T13:51:32;27.29;25.74
70676;DHT22;59069;52.242;20.900;2023-05-29T13:53:58;27.21;25.53
70676;DHT22;59069;52.242;20.900;2023-05-29T13:56:24;27.08;25.63
70676;DHT22;59069;52.242;20.900;2023-05-29T13:58:52;26.90;25.87
70676;DHT22;59069;52.242;20.900;2023-05-29T14:01:17;26.70;26.19
70676;DHT22;59069;52.242;20.900;2023-05-29T14:03:45;26.70;27.35
70676;DHT22;59069;52.242;20.900;2023-05-29T14:06:11;26.79;27.08
70676;DHT22;59069;52.242;20.900;2023-05-29T14:08:36;26.96;27.13
70676;DHT22;59069;52.242;20.900;2023-05-29T14:11:02;26.94;25.83
70676;DHT22;59069;52.242;20.900;2023-05-29T14:13:28;26.86;26.47
70676;DHT22;59069;52.242;20.900;2023-05-29T14:15:54;26.94;27.13
70676;DHT22;59069;52.242;20.900;2023-05-29T14:18:21;27.10;26.50
70676;DHT22;59069;52.242;20.900;2023-05-29T14:20:46;27.04;25.60
70676;DHT22;59069;52.242;20.900;2023-05-29T14:23:13;26.90;26.08
70676;DHT22;59069;52.242;20.900;2023-05-29T14:25:41;26.70;26.15
70676;DHT22;59069;52.242;20.900;2023-05-29T14:28:07;26.49;26.37
70676;DHT22;59069;52.242;20.900;2023-05-29T14:30:32;26.33;26.88
70676;DHT22;59069;52.242;20.900;2023-05-29T14:32:58;26.19;27.14
70676;DHT22;59069;52.242;20.900;2023-05-29T14:35:25;26.02;27.40
70676;DHT22;59069;52.242;20.900;2023-05-29T14:37:50;25.92;27.76
70676;DHT22;59069;52.242;20.900;2023-05-29T14:40:16;25.95;28.45
70676;DHT22;59069;52.242;20.900;2023-05-29T14:42:41;25.95;27.86
70676;DHT22;59069;52.242;20.900;2023-05-29T14:45:07;25.84;27.43
70676;DHT22;59069;52.242;20.900;2023-05-29T14:47:33;25.71;27.59
70676;DHT22;59069;52.242;20.900;2023-05-29T14:49:58;25.59;27.59
70676;DHT22;59069;52.242;20.900;2023-05-29T14:52:23;25.46;28.00
70676;DHT22;59069;52.242;20.900;2023-05-29T14:54:49;25.37;28.01
70676;DHT22;59069;52.242;20.900;2023-05-29T14:57:14;25.44;28.43
70676;DHT22;59069;52.242;20.900;2023-05-29T14:59:40;25.59;28.32
70676;DHT22;59069;52.242;20.900;2023-05-29T15:02:05;25.70;28.07
70676;DHT22;59069;52.242;20.900;2023-05-29T15:04:31;25.88;28.00
70676;DHT22;59069;52.242;20.900;2023-05-29T15:06:56;26.02;28.12
70676;DHT22;59069;52.242;20.900;2023-05-29T15:09:22;26.17;27.55
70676;DHT22;59069;52.242;20.900;2023-05-29T15:11:48;26.39;27.72
70676;DHT22;59069;52.242;20.900;2023-05-29T15:14:13;26.39;26.64
70676;DHT22;59069;52.242;20.900;2023-05-29T15:16:39;26.46;27.25
70676;DHT22;59069;52.242;20.900;2023-05-29T15:19:05;26.57;26.94
70676;DHT22;59069;52.242;20.900;2023-05-29T15:21:31;26.55;26.48
70676;DHT22;59069;52.242;20.900;2023-05-29T15:23:56;26.50;26.55
70676;DHT22;59069;52.242;20.900;2023-05-29T15:26:22;26.41;26.67
70676;DHT22;59069;52.242;20.900;2023-05-29T15:28:47;26.41;26.71
70676;DHT22;59069;52.242;20.900;2023-05-29T15:31:13;26.39;26.71
70676;DHT22;59069;52.242;20.900;2023-05-29T15:33:39;26.31;26.56
70676;DHT22;59069;52.242;20.900;2023-05-29T15:36:05;26.08;26.39
70676;DHT22;59069;52.242;20.900;2023-05-29T15:38:31;25.88;26.85
70676;DHT22;59069;52.242;20.900;2023-05-29T15:40:58;25.53;27.24
70676;DHT22;59069;52.242;20.900;2023-05-29T15:43:23;25.30;27.79
70676;DHT22;59069;52.242;20.900;2023-05-29T15:45:50;25.15;28.33
70676;DHT22;59069;52.242;20.900;2023-05-29T15:48:16;24.99;28.72
70676;DHT22;59069;52.242;20.900;2023-05-29T15:50:41;24.92;28.78
70676;DHT22;59069;52.242;20.900;2023-05-29T15:53:07;24.90;29.20
70676;DHT22;59069;52.242;20.900;2023-05-29T15:55:32;24.95;29.30
70676;DHT22;59069;52.242;20.900;2023-05-29T15:57:58;24.93;29.25